Time;durP1;ratioP1;P1;durP2;ratioP2;P2;SDS_P1;SDS_P2;PMS_P1;PMS_P2;Temp;Humidity;BMP_temperature;BMP_pressure;BME280_temperature;BME280_humidity;BME280_pressure;Samples;Min_cycle;Max_cycle;Signal;HPM_P1;HPM_P2
2022/01/21 00:00:22;;;;;;;;;12.60;12.60;;;;;;;;5249078;28;8818;-68
2022/01/21 00:02:53;;;;;;;;;7.00;7.00;;;;;;;;5232684;28;8759;-68
2022/01/21 00:05:43;;;;;;;;;10.00;10.00;;;;;;;;5249862;28;8798;-68
2022/01/21 00:08:15;;;;;;;;;10.40;10.00;;;;;;;;5249465;28;8783;-69
2022/01/21 00:10:46;;;;;;;;;12.60;12.00;;;;;;;;5250203;28;9489;-69
2022/01/21 00:13:33;;;;;;;;;6.40;6.00;;;;;;;;5265958;28;8747;-69
2022/01/21 00:16:06;;;;;;;;;6.60;6.40;;;;;;;;5233043;28;8778;-69
2022/01/21 00:18:39;;;;;;;;;10.20;9.60;;;;;;;;5266803;28;8755;-69
2022/01/21 00:30:18;;;;;;;;;9.80;9.80;;;;;;;;5249529;28;8771;-68
2022/01/21 00:33:07;;;;;;;;;9.20;9.00;;;;;;;;5251254;28;8814;-69
2022/01/21 00:35:38;;;;;;;;;9.80;9.80;;;;;;;;5232660;28;8802;-69
2022/01/21 00:38:09;;;;;;;;;10.80;10.00;;;;;;;;5232463;28;8795;-69
2022/01/21 00:40:41;;;;;;;;;12.60;12.60;;;;;;;;5232077;28;8802;-69
2022/01/21 00:43:18;;;;;;;;;9.80;9.80;;;;;;;;5252887;28;8794;-69
2022/01/21 00:45:50;;;;;;;;;9.80;9.80;;;;;;;;5236992;28;8751;-69
2022/01/21 00:48:21;;;;;;;;;9.40;9.40;;;;;;;;5236438;28;8802;-69
2022/01/21 00:51:10;;;;;;;;;10.80;10.80;;;;;;;;5253715;28;8782;-69
2022/01/21 00:53:42;;;;;;;;;7.00;7.00;;;;;;;;5252994;28;8851;-69
2022/01/21 00:56:13;;;;;;;;;15.80;12.00;;;;;;;;5236495;28;8801;-69
2022/01/21 00:58:44;;;;;;;;;15.20;11.60;;;;;;;;5252895;28;8782;-69
2022/01/21 01:01:34;;;;;;;;;7.00;7.00;;;;;;;;5239298;28;8894;-69
2022/01/21 01:04:05;;;;;;;;;9.80;9.20;;;;;;;;5269971;28;8778;-69
2022/01/21 01:06:37;;;;;;;;;3.60;3.60;;;;;;;;5269851;28;8787;-68
2022/01/21 01:09:08;;;;;;;;;9.00;8.60;;;;;;;;5252701;28;8774;-68
2022/01/21 01:12:08;;;;;;;;;10.00;9.00;;;;;;;;5236493;28;8972;-68
2022/01/21 01:20:19;;;;;;;;;6.40;6.40;;;;;;;;5252906;28;8818;-69
2022/01/21 01:22:59;;;;;;;;;6.80;4.00;;;;;;;;5253117;28;8771;-69
2022/01/21 01:28:21;;;;;;;;;3.80;3.80;;;;;;;;5236038;28;8791;-69
2022/01/21 01:30:52;;;;;;;;;7.00;7.00;;;;;;;;5253142;28;8795;-69
2022/01/21 01:33:26;;;;;;;;;3.00;3.00;;;;;;;;5235249;28;8830;-69
2022/01/21 01:35:57;;;;;;;;;6.60;6.60;;;;;;;;5235498;28;8920;-69
2022/01/21 01:41:22;;;;;;;;;7.80;7.80;;;;;;;;5235885;28;8822;-70
2022/01/21 01:49:36;;;;;;;;;9.40;9.00;;;;;;;;5269378;28;8767;-70
2022/01/21 01:52:12;;;;;;;;;9.20;9.20;;;;;;;;5251928;28;8779;-70
2022/01/21 01:54:46;;;;;;;;;6.60;6.60;;;;;;;;5269913;28;8750;-69
2022/01/21 01:57:17;;;;;;;;;8.80;7.60;;;;;;;;5269697;28;8767;-69
2022/01/21 01:59:48;;;;;;;;;8.20;8.20;;;;;;;;5251999;28;8798;-71
2022/01/21 02:02:20;;;;;;;;;6.00;6.00;;;;;;;;5251617;28;8798;-69
2022/01/21 02:04:51;;;;;;;;;6.20;5.60;;;;;;;;5235236;28;8889;-69
2022/01/21 02:07:23;;;;;;;;;1.80;1.80;;;;;;;;5268331;28;8767;-69
2022/01/21 02:09:54;;;;;;;;;6.40;6.40;;;;;;;;5251868;28;9509;-70
2022/01/21 02:12:25;;;;;;;;;7.40;7.40;;;;;;;;5251249;28;8771;-70
2022/01/21 02:15:00;;;;;;;;;7.25;7.25;;;;;;;;5235044;28;8856;-70
2022/01/21 02:22:54;;;;;;;;;7.80;7.80;;;;;;;;5269865;28;9628;-70
2022/01/21 02:25:26;;;;;;;;;4.40;4.40;;;;;;;;5251077;28;8909;-70
2022/01/21 02:27:58;;;;;;;;;5.60;5.60;;;;;;;;5252031;28;8767;-70
2022/01/21 02:30:31;;;;;;;;;7.00;7.00;;;;;;;;5218162;28;8881;-69
2022/01/21 02:33:03;;;;;;;;;7.00;6.20;;;;;;;;5217954;28;8794;-69
2022/01/21 02:35:37;;;;;;;;;123.50;86.50;;;;;;;;5268911;28;8858;-69
2022/01/21 02:38:11;;;;;;;;;11.20;11.20;;;;;;;;5251175;28;9458;-69
2022/01/21 02:40:43;;;;;;;;;9.80;9.80;;;;;;;;5250857;28;8807;-69
2022/01/21 02:43:15;;;;;;;;;6.00;6.00;;;;;;;;5234324;28;8901;-70
2022/01/21 02:46:08;;;;;;;;;7.40;7.40;;;;;;;;5269212;28;9445;-69
2022/01/21 02:48:39;;;;;;;;;7.00;7.00;;;;;;;;5251247;28;8944;-68
2022/01/21 02:51:12;;;;;;;;;9.60;8.60;;;;;;;;5268388;28;8913;-69
2022/01/21 02:56:18;;;;;;;;;81.75;61.75;;;;;;;;5251429;28;8778;-68
2022/01/21 02:58:50;;;;;;;;;10.00;9.60;;;;;;;;5250444;28;8810;-69
2022/01/21 03:01:21;;;;;;;;;6.00;5.60;;;;;;;;5266991;28;8818;-69
2022/01/21 03:03:54;;;;;;;;;8.60;8.60;;;;;;;;5266918;28;8813;-69
2022/01/21 03:06:25;;;;;;;;;7.00;7.00;;;;;;;;5233720;28;9546;-68
2022/01/21 03:09:15;;;;;;;;;3.00;3.00;;;;;;;;5269288;28;8783;-70
2022/01/21 03:11:47;;;;;;;;;6.40;6.40;;;;;;;;5234079;28;9600;-70
2022/01/21 03:14:18;;;;;;;;;1.00;1.00;;;;;;;;5267181;28;9453;-70
2022/01/21 03:16:49;;;;;;;;;8.60;8.60;;;;;;;;5250399;28;8814;-70
2022/01/21 03:19:20;;;;;;;;;13.40;13.40;;;;;;;;5234396;28;8794;-70
2022/01/21 03:22:12;;;;;;;;;9.00;8.60;;;;;;;;5250651;28;8856;-71
2022/01/21 03:24:43;;;;;;;;;6.40;6.40;;;;;;;;5268445;28;8829;-68
2022/01/21 03:27:16;;;;;;;;;9.00;9.00;;;;;;;;5251038;28;8791;-68
2022/01/21 03:30:08;;;;;;;;;10.80;9.80;;;;;;;;5250122;28;8855;-67
2022/01/21 03:32:46;;;;;;;;;6.80;6.80;;;;;;;;5233521;28;8833;-68
2022/01/21 03:35:17;;;;;;;;;6.60;6.20;;;;;;;;5267018;28;9512;-68
2022/01/21 03:37:48;;;;;;;;;14.20;13.80;;;;;;;;5250023;28;8783;-67
2022/01/21 03:40:19;;;;;;;;;18.00;17.50;;;;;;;;5266651;28;8832;-67
2022/01/21 03:42:51;;;;;;;;;21.80;21.00;;;;;;;;5268145;28;8790;-67
2022/01/21 03:45:22;;;;;;;;;20.60;19.00;;;;;;;;5233220;28;8775;-68
2022/01/21 03:47:55;;;;;;;;;19.00;19.00;;;;;;;;5233331;28;8810;-68
2022/01/21 03:50:32;;;;;;;;;21.40;21.40;;;;;;;;5250157;28;9418;-69
2022/01/21 03:53:05;;;;;;;;;15.80;15.80;;;;;;;;5233187;28;8762;-69
2022/01/21 03:55:38;;;;;;;;;11.60;11.20;;;;;;;;5250600;28;8771;-69
2022/01/21 03:58:10;;;;;;;;;3.80;3.80;;;;;;;;5232771;28;8799;-69
2022/01/21 04:00:47;;;;;;;;;7.80;7.80;;;;;;;;5250341;28;9566;-68
2022/01/21 04:03:37;;;;;;;;;7.80;7.80;;;;;;;;5267724;28;8751;-68
2022/01/21 04:06:08;;;;;;;;;7.00;7.00;;;;;;;;5249779;28;8774;-68
2022/01/21 04:08:39;;;;;;;;;6.20;6.20;;;;;;;;5266514;28;8801;-69
2022/01/21 04:11:10;;;;;;;;;3.20;3.00;;;;;;;;5266221;28;8801;-69
2022/01/21 04:13:48;;;;;;;;;6.00;6.00;;;;;;;;5250525;28;8771;-68
2022/01/21 04:16:23;;;;;;;;;4.80;4.80;;;;;;;;5217010;28;8913;-68
2022/01/21 04:18:55;;;;;;;;;7.00;7.00;;;;;;;;5249946;28;8797;-68
2022/01/21 04:21:27;;;;;;;;;7.80;7.00;;;;;;;;5249437;28;8824;-69
2022/01/21 04:24:17;;;;;;;;;4.00;4.00;;;;;;;;5267080;28;8751;-69
2022/01/21 04:26:48;;;;;;;;;4.40;4.40;;;;;;;;5249536;28;8779;-69
2022/01/21 04:29:20;;;;;;;;;8.20;8.20;;;;;;;;5265920;28;8806;-69
2022/01/21 04:31:57;;;;;;;;;7.40;6.80;;;;;;;;5233471;28;8770;-68
2022/01/21 04:34:34;;;;;;;;;6.60;6.60;;;;;;;;5267785;28;8755;-69
2022/01/21 04:37:10;;;;;;;;;6.80;6.80;;;;;;;;5216083;28;8791;-69
2022/01/21 04:40:20;;;;;;;;;7.20;7.20;;;;;;;;5235527;28;8817;-69
2022/01/21 04:48:55;;;;;;;;;8.20;8.20;;;;;;;;5249480;28;8775;-74
2022/01/21 04:51:28;;;;;;;;;9.00;9.00;;;;;;;;5232624;28;9560;-74
2022/01/21 04:54:01;;;;;;;;;7.40;7.40;;;;;;;;5248692;28;10876;-73
2022/01/21 04:56:34;;;;;;;;;9.20;9.20;;;;;;;;5232932;28;9477;-73
2022/01/21 04:59:05;;;;;;;;;9.25;6.75;;;;;;;;5266729;28;8802;-73
2022/01/21 05:01:39;;;;;;;;;9.60;9.60;;;;;;;;5248652;28;11444;-73
2022/01/21 05:04:10;;;;;;;;;9.25;9.25;;;;;;;;5215299;28;8824;-73
2022/01/21 05:06:41;;;;;;;;;11.60;11.60;;;;;;;;5248643;28;11380;-73
2022/01/21 05:09:16;;;;;;;;;13.40;12.60;;;;;;;;5265577;28;8888;-72
2022/01/21 05:11:48;;;;;;;;;9.20;9.20;;;;;;;;5231810;28;8787;-73
2022/01/21 05:18:44;;;;;;;;;8.40;8.40;;;;;;;;5266630;28;8699;-74
2022/01/21 05:21:33;;;;;;;;;8.40;8.40;;;;;;;;5267214;28;8786;-73
2022/01/21 05:24:16;;;;;;;;;10.60;9.20;;;;;;;;5249389;28;8898;-73
2022/01/21 05:26:54;;;;;;;;;6.60;6.60;;;;;;;;5248340;28;8771;-70
2022/01/21 05:29:29;;;;;;;;;8.40;7.80;;;;;;;;5235822;28;8782;-76
2022/01/21 05:41:23;;;;;;;;;9.60;9.60;;;;;;;;5249102;28;8795;-77
2022/01/21 05:51:46;;;;;;;;;13.20;12.40;;;;;;;;5248740;28;8709;-74
2022/01/21 05:54:47;;;;;;;;;15.80;15.60;;;;;;;;5194188;28;8770;-76
2022/01/21 05:57:36;;;;;;;;;14.40;14.40;;;;;;;;5249085;28;8782;-74
2022/01/21 06:00:09;;;;;;;;;19.40;19.40;;;;;;;;5249139;28;8825;-76
2022/01/21 06:02:50;;;;;;;;;14.40;13.80;;;;;;;;5216165;28;8771;-76
2022/01/21 06:05:22;;;;;;;;;13.00;12.80;;;;;;;;5263329;28;8790;-77
2022/01/21 06:07:52;;;;;;;;;19.50;17.00;;;;;;;;5223530;28;8797;-80
2022/01/21 06:10:25;;;;;;;;;12.00;12.00;;;;;;;;5213610;28;10849;-73
2022/01/21 06:12:56;;;;;;;;;8.20;8.20;;;;;;;;5221666;28;8794;-73
2022/01/21 06:15:28;;;;;;;;;18.00;18.00;;;;;;;;5216132;28;8791;-72
2022/01/21 06:17:59;;;;;;;;;12.40;12.40;;;;;;;;5250470;28;8790;-73
2022/01/21 06:20:30;;;;;;;;;21.20;21.20;;;;;;;;5212959;28;8820;-74
2022/01/21 06:23:01;;;;;;;;;17.75;17.00;;;;;;;;5250723;28;8791;-73
2022/01/21 06:25:33;;;;;;;;;11.60;11.20;;;;;;;;5248382;28;10095;-74
2022/01/21 06:28:04;;;;;;;;;8.60;8.60;;;;;;;;5214163;28;8857;-73
2022/01/21 06:38:37;;;;;;;;;6.00;6.00;;;;;;;;5246256;28;8939;-74
2022/01/21 06:41:08;;;;;;;;;12.80;12.80;;;;;;;;5229329;28;8812;-73
2022/01/21 06:43:39;;;;;;;;;12.20;12.20;;;;;;;;5230045;28;8792;-73
2022/01/21 06:46:11;;;;;;;;;8.60;8.60;;;;;;;;5247826;28;8788;-73
2022/01/21 06:48:43;;;;;;;;;7.00;7.00;;;;;;;;5248001;28;8791;-73
2022/01/21 06:51:14;;;;;;;;;10.80;10.40;;;;;;;;5249057;28;9436;-73
2022/01/21 06:53:45;;;;;;;;;13.75;13.50;;;;;;;;5197409;28;8923;-73
2022/01/21 06:56:16;;;;;;;;;13.00;12.50;;;;;;;;5230041;28;8804;-73
2022/01/21 06:58:47;;;;;;;;;21.00;20.60;;;;;;;;5226465;28;9476;-73
2022/01/21 07:01:18;;;;;;;;;11.20;11.20;;;;;;;;5213861;28;8889;-73
2022/01/21 07:03:49;;;;;;;;;7.00;7.00;;;;;;;;5229668;28;8785;-73
2022/01/21 07:06:20;;;;;;;;;10.00;10.00;;;;;;;;5229605;28;8809;-73
2022/01/21 07:08:51;;;;;;;;;6.20;6.20;;;;;;;;5229447;28;9612;-73
2022/01/21 07:11:22;;;;;;;;;28.25;27.50;;;;;;;;5247261;28;8780;-73
2022/01/21 07:13:53;;;;;;;;;21.40;18.20;;;;;;;;5230194;28;11475;-73
2022/01/21 07:16:24;;;;;;;;;19.25;14.75;;;;;;;;5196693;28;8827;-73
2022/01/21 07:18:55;;;;;;;;;12.40;10.60;;;;;;;;5212920;28;8784;-73
2022/01/21 07:21:26;;;;;;;;;11.20;10.40;;;;;;;;5213016;28;9447;-73
2022/01/21 07:23:57;;;;;;;;;13.40;12.60;;;;;;;;5229226;28;8777;-74
2022/01/21 07:26:29;;;;;;;;;7.80;7.00;;;;;;;;5212527;28;9394;-71
2022/01/21 07:29:01;;;;;;;;;14.00;11.40;;;;;;;;5229317;28;8828;-74
2022/01/21 07:31:32;;;;;;;;;13.00;13.00;;;;;;;;5246984;28;8873;-73
2022/01/21 07:34:06;;;;;;;;;10.80;10.80;;;;;;;;5196343;28;8789;-74
2022/01/21 07:36:37;;;;;;;;;15.00;12.80;;;;;;;;5215656;28;8808;-74
2022/01/21 07:39:08;;;;;;;;;11.80;11.80;;;;;;;;5229291;28;9480;-72
2022/01/21 07:41:39;;;;;;;;;10.20;10.20;;;;;;;;5229131;28;8801;-72
2022/01/21 07:44:12;;;;;;;;;9.80;9.80;;;;;;;;5245491;28;8970;-72
2022/01/21 07:46:45;;;;;;;;;11.20;11.20;;;;;;;;5212130;28;8786;-72
2022/01/21 07:49:16;;;;;;;;;15.20;12.80;;;;;;;;5229382;28;8754;-73
2022/01/21 07:51:47;;;;;;;;;14.60;14.60;;;;;;;;5228472;28;8792;-73
2022/01/21 07:54:18;;;;;;;;;10.00;10.00;;;;;;;;5246517;28;8762;-73
2022/01/21 07:56:49;;;;;;;;;17.20;17.20;;;;;;;;5211991;28;8901;-73
2022/01/21 07:59:20;;;;;;;;;9.80;9.80;;;;;;;;5228939;28;9456;-73
2022/01/21 08:01:51;;;;;;;;;13.20;12.40;;;;;;;;5246424;28;8811;-72
2022/01/21 08:04:22;;;;;;;;;14.75;14.75;;;;;;;;5247144;28;8815;-72
2022/01/21 08:06:53;;;;;;;;;23.00;20.00;;;;;;;;5212054;28;11503;-73
2022/01/21 08:09:25;;;;;;;;;12.80;12.00;;;;;;;;5246010;28;8781;-72
2022/01/21 08:11:56;;;;;;;;;27.20;27.00;;;;;;;;5228571;28;8804;-72
2022/01/21 08:14:27;;;;;;;;;50.20;44.60;;;;;;;;5229192;28;8781;-73
2022/01/21 08:16:59;;;;;;;;;26.20;25.80;;;;;;;;5228527;28;8769;-71
2022/01/21 08:19:30;;;;;;;;;21.00;18.60;;;;;;;;5246302;28;8773;-72
2022/01/21 08:22:01;;;;;;;;;10.50;10.50;;;;;;;;5246762;28;9470;-72
2022/01/21 08:24:32;;;;;;;;;11.60;11.60;;;;;;;;5228777;28;8776;-72
2022/01/21 08:27:03;;;;;;;;;7.20;7.20;;;;;;;;5212254;28;8823;-72
2022/01/21 08:29:34;;;;;;;;;12.80;12.80;;;;;;;;5195269;28;8792;-73
2022/01/21 08:32:07;;;;;;;;;7.40;7.40;;;;;;;;5211644;28;8985;-72
2022/01/21 08:34:38;;;;;;;;;12.20;12.00;;;;;;;;5228009;28;8787;-72
2022/01/21 08:37:09;;;;;;;;;6.80;6.80;;;;;;;;5215773;28;8806;-73
2022/01/21 08:39:40;;;;;;;;;11.50;10.00;;;;;;;;5248879;28;8795;-72
2022/01/21 08:42:26;;;;;;;;;3.60;3.60;;;;;;;;5237281;28;12118;-73
2022/01/21 08:44:56;;;;;;;;;12.60;12.60;;;;;;;;5267534;28;8785;-72
2022/01/21 08:47:27;;;;;;;;;5.80;5.80;;;;;;;;5267124;28;9602;-72
2022/01/21 08:50:05;;;;;;;;;11.00;10.50;;;;;;;;5249098;28;8907;-72
2022/01/21 08:52:37;;;;;;;;;13.40;13.40;;;;;;;;5249063;28;10607;-73
2022/01/21 08:55:10;;;;;;;;;54.60;47.00;;;;;;;;5248895;28;8798;-72
2022/01/21 08:57:42;;;;;;;;;12.80;12.80;;;;;;;;5215516;28;8802;-72
2022/01/21 09:00:13;;;;;;;;;10.00;9.20;;;;;;;;5248784;28;8809;-72
2022/01/21 09:02:44;;;;;;;;;14.50;12.75;;;;;;;;5250437;28;8775;-72
2022/01/21 09:05:15;;;;;;;;;12.80;12.00;;;;;;;;5219508;28;11427;-73
2022/01/21 09:07:46;;;;;;;;;8.50;8.00;;;;;;;;5254057;28;8801;-73
2022/01/21 09:10:17;;;;;;;;;15.25;14.00;;;;;;;;5270866;28;11457;-72
2022/01/21 09:12:48;;;;;;;;;5.00;4.00;;;;;;;;5236185;28;11453;-73
2022/01/21 09:15:24;;;;;;;;;9.40;9.40;;;;;;;;5252570;28;10980;-73
2022/01/21 09:18:02;;;;;;;;;8.00;6.80;;;;;;;;5271333;28;8762;-73
2022/01/21 09:20:34;;;;;;;;;30.20;27.20;;;;;;;;5270658;28;8793;-73
2022/01/21 09:23:05;;;;;;;;;15.60;13.40;;;;;;;;5270520;28;8779;-72
2022/01/21 09:25:36;;;;;;;;;9.60;9.00;;;;;;;;5235825;28;8847;-73
2022/01/21 09:28:07;;;;;;;;;14.20;12.00;;;;;;;;5271358;28;8767;-74
2022/01/21 09:30:38;;;;;;;;;5.20;4.40;;;;;;;;5218919;28;8822;-72
2022/01/21 09:33:09;;;;;;;;;11.00;11.00;;;;;;;;5252236;28;8790;-73
2022/01/21 09:35:40;;;;;;;;;15.40;14.60;;;;;;;;5235846;28;8759;-74
2022/01/21 09:38:11;;;;;;;;;14.00;14.00;;;;;;;;5251919;28;8841;-72
2022/01/21 09:40:44;;;;;;;;;17.00;17.00;;;;;;;;5252050;28;8798;-73
2022/01/21 09:43:16;;;;;;;;;6.60;6.00;;;;;;;;5235310;28;11461;-73
2022/01/21 09:45:53;;;;;;;;;9.00;9.00;;;;;;;;5218972;28;9457;-74
2022/01/21 09:48:29;;;;;;;;;11.20;11.20;;;;;;;;5235506;28;8809;-74
2022/01/21 09:51:00;;;;;;;;;11.80;11.80;;;;;;;;5235135;28;8771;-74
2022/01/21 09:53:32;;;;;;;;;4.50;4.50;;;;;;;;5252454;28;8825;-72
2022/01/21 09:56:04;;;;;;;;;9.00;9.00;;;;;;;;5252193;28;11402;-73
2022/01/21 09:58:35;;;;;;;;;9.80;9.40;;;;;;;;5218117;28;8778;-74
2022/01/21 10:01:06;;;;;;;;;6.00;6.00;;;;;;;;5234982;28;8829;-73
2022/01/21 10:03:41;;;;;;;;;8.60;8.60;;;;;;;;5218504;28;8770;-74
2022/01/21 10:06:12;;;;;;;;;14.40;14.40;;;;;;;;5251652;28;8920;-72
2022/01/21 10:08:44;;;;;;;;;10.00;10.00;;;;;;;;5234871;28;8826;-73
2022/01/21 10:11:18;;;;;;;;;6.20;6.20;;;;;;;;5235122;28;8792;-74
2022/01/21 10:13:50;;;;;;;;;12.80;12.40;;;;;;;;5251358;28;8779;-73
2022/01/21 10:16:21;;;;;;;;;8.80;8.80;;;;;;;;5251688;28;8936;-73
2022/01/21 10:19:01;;;;;;;;;8.20;8.20;;;;;;;;5234813;28;8779;-73
2022/01/21 10:21:33;;;;;;;;;16.80;16.80;;;;;;;;5234738;28;8913;-73
2022/01/21 10:24:22;;;;;;;;;10.00;9.20;;;;;;;;5269277;28;8778;-73
2022/01/21 10:27:21;;;;;;;;;18.00;17.60;;;;;;;;5252172;28;8915;-72
2022/01/21 10:29:53;;;;;;;;;15.60;12.60;;;;;;;;5269979;28;8769;-73
2022/01/21 10:32:42;;;;;;;;;8.60;8.60;;;;;;;;5254556;28;8767;-72
2022/01/21 10:35:20;;;;;;;;;17.20;16.40;;;;;;;;5269478;28;8767;-72
2022/01/21 10:37:53;;;;;;;;;9.80;9.20;;;;;;;;5251526;28;8802;-73
2022/01/21 10:40:32;;;;;;;;;9.20;7.40;;;;;;;;5234475;28;8823;-73
2022/01/21 10:43:14;;;;;;;;;10.80;10.00;;;;;;;;5218368;28;8783;-72
2022/01/21 10:45:56;;;;;;;;;21.20;19.40;;;;;;;;5234445;28;8809;-73
2022/01/21 10:48:31;;;;;;;;;19.40;18.80;;;;;;;;5234707;28;8837;-73
2022/01/21 10:51:15;;;;;;;;;23.80;23.60;;;;;;;;5217618;28;8775;-73
2022/01/21 10:53:46;;;;;;;;;24.40;23.00;;;;;;;;5234329;28;9446;-73
2022/01/21 10:56:18;;;;;;;;;22.40;22.40;;;;;;;;5268442;28;8871;-74
2022/01/21 10:58:54;;;;;;;;;20.20;20.20;;;;;;;;5217262;28;8847;-74
2022/01/21 11:01:28;;;;;;;;;15.80;15.20;;;;;;;;5234083;28;8799;-73
2022/01/21 11:04:15;;;;;;;;;17.80;16.40;;;;;;;;5233960;28;8810;-73
2022/01/21 11:06:50;;;;;;;;;21.60;21.60;;;;;;;;5250425;28;8790;-73
2022/01/21 11:09:25;;;;;;;;;14.80;14.80;;;;;;;;5250769;28;8943;-72
2022/01/21 11:12:10;;;;;;;;;29.60;28.00;;;;;;;;5217921;28;9490;-72
2022/01/21 11:15:02;;;;;;;;;33.00;30.20;;;;;;;;5233960;28;8791;-73
2022/01/21 11:17:37;;;;;;;;;21.20;20.60;;;;;;;;5250837;28;8785;-68
2022/01/21 11:20:16;;;;;;;;;20.40;19.60;;;;;;;;5217353;28;8798;-72
2022/01/21 11:22:55;;;;;;;;;18.80;15.80;;;;;;;;5233758;28;9528;-72
2022/01/21 11:25:45;;;;;;;;;14.40;14.40;;;;;;;;5233193;28;8793;-72
2022/01/21 11:28:17;;;;;;;;;21.60;21.60;;;;;;;;5233850;28;8781;-72
2022/01/21 11:30:49;;;;;;;;;34.00;30.20;;;;;;;;5217209;28;8791;-73
2022/01/21 11:33:38;;;;;;;;;35.00;33.60;;;;;;;;5267930;28;8793;-72
2022/01/21 11:36:10;;;;;;;;;22.50;22.50;;;;;;;;5249558;28;8802;-72
2022/01/21 11:38:43;;;;;;;;;21.40;21.40;;;;;;;;5268379;28;9702;-72
2022/01/21 11:41:15;;;;;;;;;23.60;23.40;;;;;;;;5250122;28;8805;-73
2022/01/21 11:43:55;;;;;;;;;13.40;12.80;;;;;;;;5250812;28;8797;-73
2022/01/21 11:49:26;;;;;;;;;20.00;18.40;;;;;;;;5268377;28;8955;-72
2022/01/21 11:52:09;;;;;;;;;21.00;19.80;;;;;;;;5268837;28;8783;-72
2022/01/21 11:54:40;;;;;;;;;16.80;16.60;;;;;;;;5216715;28;8783;-72
2022/01/21 11:57:12;;;;;;;;;18.20;15.20;;;;;;;;5249716;28;9539;-72
2022/01/21 11:59:53;;;;;;;;;18.60;15.00;;;;;;;;5249928;28;8782;-72
2022/01/21 12:02:28;;;;;;;;;17.40;17.40;;;;;;;;5216824;28;8786;-72
2022/01/21 12:05:01;;;;;;;;;21.40;21.20;;;;;;;;5216330;28;8767;-72
2022/01/21 12:07:35;;;;;;;;;9.20;9.00;;;;;;;;5249377;28;8809;-71
2022/01/21 12:10:10;;;;;;;;;13.00;13.00;;;;;;;;5216090;28;9513;-72
2022/01/21 12:12:45;;;;;;;;;23.80;23.80;;;;;;;;5250020;28;8806;-72
2022/01/21 12:21:04;;;;;;;;;18.80;18.40;;;;;;;;5232786;28;8803;-73
2022/01/21 12:23:45;;;;;;;;;18.20;17.20;;;;;;;;5233131;28;8782;-73
2022/01/21 12:26:16;;;;;;;;;15.40;15.40;;;;;;;;5267300;28;9496;-72
2022/01/21 12:29:07;;;;;;;;;26.80;23.20;;;;;;;;5249672;28;8779;-73
2022/01/21 12:31:42;;;;;;;;;14.60;14.60;;;;;;;;5267048;28;8808;-72
2022/01/21 12:34:57;;;;;;;;;21.00;19.40;;;;;;;;5217379;28;8893;-72
2022/01/21 12:39:05;;;;;;;;;20.40;18.60;;;;;;;;5267518;28;9490;-72
2022/01/21 12:40:33;;;;;;;;;14.00;13.80;;;;;;;;5265479;28;8848;-73
2022/01/21 12:43:23;;;;;;;;;25.80;24.40;;;;;;;;5236890;28;8808;-72
2022/01/21 12:46:01;;;;;;;;;27.60;25.40;;;;;;;;5253756;28;8788;-73
2022/01/21 12:48:36;;;;;;;;;30.20;28.80;;;;;;;;5253146;28;8987;-73
2022/01/21 12:56:48;;;;;;;;;24.60;23.20;;;;;;;;5253012;28;8755;-73
2022/01/21 12:59:20;;;;;;;;;36.40;31.80;;;;;;;;5270893;28;9508;-73
2022/01/21 13:01:51;;;;;;;;;28.80;27.00;;;;;;;;5219799;28;8814;-73
2022/01/21 13:05:00;;;;;;;;;36.00;33.20;;;;;;;;5255955;28;9521;-73
2022/01/21 13:07:37;;;;;;;;;32.40;27.80;;;;;;;;5236467;28;8755;-73
2022/01/21 13:10:12;;;;;;;;;26.00;26.00;;;;;;;;5219838;28;8767;-73
2022/01/21 13:15:42;;;;;;;;;15.60;15.00;;;;;;;;5271721;28;8770;-73
2022/01/21 13:18:24;;;;;;;;;38.00;35.60;;;;;;;;5219931;28;8779;-72
2022/01/21 13:20:56;;;;;;;;;26.20;24.20;;;;;;;;5253090;28;8802;-72
2022/01/21 13:23:31;;;;;;;;;35.40;33.80;;;;;;;;5253172;28;8789;-73
2022/01/21 13:26:08;;;;;;;;;28.60;27.40;;;;;;;;5219183;28;8799;-73
2022/01/21 13:28:57;;;;;;;;;37.80;35.40;;;;;;;;5219141;28;8778;-72
2022/01/21 13:31:30;;;;;;;;;30.00;28.60;;;;;;;;5252736;28;8774;-74
2022/01/21 13:34:05;;;;;;;;;28.40;24.00;;;;;;;;5219069;28;8826;-73
2022/01/21 13:36:41;;;;;;;;;35.20;29.20;;;;;;;;5235845;28;8795;-73
2022/01/21 13:39:14;;;;;;;;;137.75;105.50;;;;;;;;5235727;28;8758;-73
2022/01/21 13:41:46;;;;;;;;;36.40;31.80;;;;;;;;5218902;28;8803;-72
2022/01/21 13:44:25;;;;;;;;;37.40;33.80;;;;;;;;5218786;28;8767;-73
2022/01/21 13:46:57;;;;;;;;;31.60;30.00;;;;;;;;5218940;28;8813;-73
2022/01/21 13:49:28;;;;;;;;;26.80;26.80;;;;;;;;5251356;28;8854;-73
2022/01/21 13:52:01;;;;;;;;;29.20;29.20;;;;;;;;5218771;28;8766;-73
2022/01/21 13:54:43;;;;;;;;;30.40;29.40;;;;;;;;5218669;28;8811;-73
2022/01/21 13:57:14;;;;;;;;;38.40;34.00;;;;;;;;5218299;28;8936;-74
2022/01/21 13:59:46;;;;;;;;;46.40;40.60;;;;;;;;5234923;28;8783;-73
2022/01/21 14:02:17;;;;;;;;;39.20;38.20;;;;;;;;5269798;28;8798;-73
2022/01/21 14:04:55;;;;;;;;;43.40;42.40;;;;;;;;5269852;28;8802;-73
2022/01/21 14:07:28;;;;;;;;;51.60;47.40;;;;;;;;5252054;28;8805;-73
2022/01/21 14:10:02;;;;;;;;;53.20;49.20;;;;;;;;5251592;28;8783;-74
2022/01/21 14:12:34;;;;;;;;;58.60;51.20;;;;;;;;5251737;28;8778;-74
2022/01/21 14:15:05;;;;;;;;;45.20;41.40;;;;;;;;5235005;28;8791;-74
2022/01/21 14:17:37;;;;;;;;;49.60;47.00;;;;;;;;5269084;28;9546;-74
2022/01/21 14:20:18;;;;;;;;;46.60;45.60;;;;;;;;5269887;28;8818;-74
2022/01/21 14:22:49;;;;;;;;;61.40;47.20;;;;;;;;5218020;28;8767;-74
2022/01/21 14:25:20;;;;;;;;;54.00;43.25;;;;;;;;5251226;28;8774;-74
2022/01/21 14:27:52;;;;;;;;;50.00;45.40;;;;;;;;5254544;28;10452;-72
2022/01/21 14:30:23;;;;;;;;;52.40;46.60;;;;;;;;5271503;28;8792;-72
2022/01/21 14:32:54;;;;;;;;;42.20;36.40;;;;;;;;5239400;28;8799;-70
2022/01/21 14:35:30;;;;;;;;;99.00;77.25;;;;;;;;5253832;28;8932;-73
2022/01/21 14:38:04;;;;;;;;;49.20;45.60;;;;;;;;5238568;28;8835;-73
2022/01/21 14:40:39;;;;;;;;;63.00;52.00;;;;;;;;5254924;28;8812;-73
2022/01/21 14:43:12;;;;;;;;;82.25;65.00;;;;;;;;5270062;28;8789;-73
2022/01/21 14:45:53;;;;;;;;;65.00;55.00;;;;;;;;5289936;28;8887;-73
2022/01/21 14:48:26;;;;;;;;;48.80;45.00;;;;;;;;5231582;28;8818;-73
2022/01/21 15:03:56;;;;;;;;;60.60;49.60;;;;;;;;5268298;28;8771;-73
2022/01/21 15:06:29;;;;;;;;;51.20;45.00;;;;;;;;5250252;28;8778;-73
2022/01/21 15:16:16;;;;;;;;;27.60;27.60;;;;;;;;5250740;28;8840;-75
2022/01/21 15:19:05;;;;;;;;;34.20;31.20;;;;;;;;5253063;28;8770;-75
2022/01/21 15:21:36;;;;;;;;;25.20;23.20;;;;;;;;5269683;28;8818;-74
2022/01/21 15:24:07;;;;;;;;;31.00;29.00;;;;;;;;5251055;28;8819;-75
2022/01/21 15:26:38;;;;;;;;;22.50;21.75;;;;;;;;5266736;28;12202;-74
2022/01/21 15:29:10;;;;;;;;;25.40;24.80;;;;;;;;5249494;28;11404;-75
2022/01/21 15:36:05;;;;;;;;;33.00;32.00;;;;;;;;5267513;28;8783;-74
2022/01/21 15:38:38;;;;;;;;;30.60;29.80;;;;;;;;5266756;28;8766;-72
2022/01/21 15:41:09;;;;;;;;;26.80;25.80;;;;;;;;5267548;28;8818;-72
2022/01/21 15:43:40;;;;;;;;;20.00;20.00;;;;;;;;5267257;28;8770;-72
2022/01/21 15:46:11;;;;;;;;;27.80;27.00;;;;;;;;5249691;28;8797;-75
2022/01/21 15:48:42;;;;;;;;;26.40;26.20;;;;;;;;5268264;28;8806;-73
2022/01/21 15:51:13;;;;;;;;;28.50;28.00;;;;;;;;5250033;28;8778;-75
2022/01/21 15:53:44;;;;;;;;;27.25;27.25;;;;;;;;5266265;28;10050;-73
2022/01/21 15:56:15;;;;;;;;;25.75;25.75;;;;;;;;5233816;28;8790;-73
2022/01/21 15:58:47;;;;;;;;;39.25;36.00;;;;;;;;5233132;28;11461;-74
2022/01/21 16:01:18;;;;;;;;;24.40;23.20;;;;;;;;5232968;28;11614;-75
2022/01/21 16:04:07;;;;;;;;;24.80;24.40;;;;;;;;5249645;28;8791;-74
2022/01/21 16:06:38;;;;;;;;;31.25;30.50;;;;;;;;5266656;28;8936;-74
2022/01/21 16:09:09;;;;;;;;;23.50;21.50;;;;;;;;5265552;28;11218;-74
2022/01/21 16:11:40;;;;;;;;;25.00;24.60;;;;;;;;5249585;28;8782;-73
2022/01/21 16:14:12;;;;;;;;;18.25;18.00;;;;;;;;5248951;28;8794;-74
2022/01/21 16:16:44;;;;;;;;;26.80;26.00;;;;;;;;5232228;28;10501;-75
2022/01/21 16:19:16;;;;;;;;;31.80;31.00;;;;;;;;5216214;28;8783;-71
2022/01/21 16:22:05;;;;;;;;;19.40;18.80;;;;;;;;5267460;28;9545;-75
2022/01/21 16:24:36;;;;;;;;;18.75;18.25;;;;;;;;5267654;28;8774;-75
2022/01/21 16:27:07;;;;;;;;;30.80;27.00;;;;;;;;5232293;28;12258;-76
2022/01/21 16:29:38;;;;;;;;;22.25;22.25;;;;;;;;5249392;28;8913;-74
2022/01/21 16:32:09;;;;;;;;;25.40;25.40;;;;;;;;5265839;28;8798;-75
2022/01/21 16:34:40;;;;;;;;;18.00;16.00;;;;;;;;5267298;28;8778;-75
2022/01/21 16:37:11;;;;;;;;;18.50;18.50;;;;;;;;5240164;28;9536;-75
2022/01/21 16:39:42;;;;;;;;;23.40;23.40;;;;;;;;5266822;28;9599;-73
2022/01/21 16:42:13;;;;;;;;;19.40;19.40;;;;;;;;5215625;28;8824;-75
2022/01/21 16:44:43;;;;;;;;;55.25;49.50;;;;;;;;5233158;28;8901;-75
2022/01/21 16:51:44;;;;;;;;;16.00;16.00;;;;;;;;5267171;28;8723;-73
2022/01/21 16:54:15;;;;;;;;;14.00;12.60;;;;;;;;5248648;28;8783;-73
2022/01/21 16:56:54;;;;;;;;;14.00;14.00;;;;;;;;5267540;28;9465;-73
2022/01/21 16:59:25;;;;;;;;;12.60;12.60;;;;;;;;5232172;28;8774;-72
2022/01/21 17:01:56;;;;;;;;;12.80;12.00;;;;;;;;5232022;28;8790;-73
2022/01/21 17:04:27;;;;;;;;;12.50;12.25;;;;;;;;5248891;28;8774;-73
2022/01/21 17:06:59;;;;;;;;;15.00;14.50;;;;;;;;5248391;28;8794;-73
2022/01/21 17:09:30;;;;;;;;;11.60;11.60;;;;;;;;5248521;28;12070;-73
2022/01/21 17:12:00;;;;;;;;;12.00;12.00;;;;;;;;5266793;28;8775;-73
2022/01/21 17:14:31;;;;;;;;;22.20;18.40;;;;;;;;5248122;28;8801;-73
2022/01/21 17:17:03;;;;;;;;;34.00;32.75;;;;;;;;5232361;28;8786;-73